Saturday, January 31, 2015
19:13 UTC
  |  Log In   |  Register Free
Airport Search:

Mount Sterling-Montgomery County Airport
(KIOB)

Mount Sterling-Montgomery County Airport Diagram
No Airport Diagram Available

FAA data valid effective January 08, 2015 - March 05, 2015 (unless otherwise noted).

 
 
 
 
 
 
 
 
 
 
 
 
 
 

Current Aviation Weather for Mount Sterling-Montgomery County Airport (KIOB)

The most recent METAR observation for KIOB was updated at: 1811
METAR Summary (Translated METAR)
KIOB
311755Z AUTO 24004KT 10SM CLR 02/M06 A3036 RMK AO2
KSYM
311750Z AUTO 20006KT 10SM CLR 02/M08 A3037 RMK AO2
(20.8 nm NE from KIOB)
KLEX
311754Z 22004KT 10SM CLR 03/M07 A3036 RMK AO2 SLP289 T00281067 10028 21072 58012
(29.6 nm SW from KIOB)
TAF Summary (Translated TAF)
KSYM
(20.8 nm NE from KIOB)
311738Z 3118/0118 VRB03KT P6SM BKN250 FM010000 VRB03KT P6SM OVC100 FM010600 VRB03KT P6SM VCSH BKN070 OVC100
KLEX
(29.6 nm SW from KIOB)
311729Z 3118/0118 20006KT P6SM OVC180 FM010200 12006KT P6SM OVC060 FM011500 19012G20KT P6SM OVC040
  Airport Weather Conditions for KIOB

 Current Weather at IOB
34° F
Fair
Southwest winds at 6.9 mph
IOB NOAA Radar

Pressure: 30.38 in
Humidity: 60%
Wind: Southwest at 6.9 MPH (6 KT)
Dew Point: 21.2°F
Visibility: 10.00 mi


Airport Weather Forecast for KIOB

Translated METAR and TAF for KIOB
Translated METAR for KIOB (1913 UTC 31 January 2015)
found at http://aviationweather.gov/adds/metars/
 
METAR text: KIOB 311855Z AUTO 25006KT 10SM CLR 03/M06 A3033 RMK AO2
Conditions at: KIOB (MOUNT STERLING , KY, US) observed 1855 UTC 31 January 2015
Temperature: 3.0°C (37°F)
Dewpoint: -6.0°C (21°F) [RH = 52%]
Pressure (altimeter): 30.33 inches Hg (1027.2 mb)
Winds: from the WSW (250 degrees) at 7 MPH (6 knots; 3.1 m/s)
Visibility: 10 or more miles (16+ km)
Ceiling: at least 12,000 feet AGL
Clouds: sky clear below 12,000 feet AGL
Weather: automated observation with no human augmentation;
there may or may not be significant weather present at this time
Translated TAF for KIOB

There is no translated TAF available for this airport

Find All Airport Services Find A Hotel Find A Rental Car Find A Golf Course Find A Restaurant $100 Hamburger



FBO's on the Field
FBO Company Facility Photos Services Transportation Aviation Fuel Prices: Prices include tax
Catering Weather Repair Courtesy Rental Type 100LL JetA JetA+ MOGAS 8087
 
Kentucky Airmotive Inc

This FBO has not yet been rated
FS:Shell
Last Updated: Jan-26
Login to update fuel prices
SS:
Contact Kentucky Airmotive IncMore FBO Information
 
Add another FBO Facility Photos Catering Weather Repair Courtesy Rental Type 100LL JetA JetA+ MOGAS 8087
Services Transportation Aviation Fuel Prices: Prices include tax


model-print
model-print
model-print
model-print